createdAt,value
2017-11-14T00:00:41.204Z,20.60
2017-11-14T00:03:08.667Z,19.95
2017-11-14T00:05:36.185Z,21.50
2017-11-14T00:08:03.641Z,21.40
2017-11-14T00:10:31.109Z,19.85
2017-11-14T00:12:59.337Z,20.30
2017-11-14T00:15:26.818Z,19.17
2017-11-14T00:17:54.273Z,19.75
2017-11-14T00:20:21.747Z,19.90
2017-11-14T00:22:49.220Z,19.33
2017-11-14T00:25:17.461Z,20.88
2017-11-14T00:27:44.927Z,19.80
2017-11-14T00:30:13.906Z,20.33
2017-11-14T00:32:41.377Z,18.95
2017-11-14T00:35:08.841Z,19.10
2017-11-14T00:37:36.396Z,19.62
2017-11-14T00:40:04.641Z,19.95
2017-11-14T00:42:32.105Z,18.08
2017-11-14T00:44:59.569Z,19.08
2017-11-14T00:47:27.040Z,19.95
2017-11-14T00:49:54.501Z,20.00
2017-11-14T00:52:21.971Z,19.90
2017-11-14T00:54:50.220Z,21.27
2017-11-14T00:57:17.696Z,20.23
2017-11-14T00:59:45.173Z,21.33
2017-11-14T01:02:13.417Z,19.37
2017-11-14T01:04:40.885Z,21.05
2017-11-14T01:07:08.356Z,20.88
2017-11-14T01:09:36.596Z,21.17
2017-11-14T01:12:04.069Z,19.87
2017-11-14T01:14:31.545Z,20.17
2017-11-14T01:16:59.818Z,21.37
2017-11-14T01:19:28.057Z,21.90
2017-11-14T01:21:55.550Z,23.73
2017-11-14T01:24:23.018Z,23.45
2017-11-14T01:26:51.253Z,23.08
2017-11-14T01:29:18.817Z,23.20
2017-11-14T01:31:46.292Z,22.35
2017-11-14T01:34:13.767Z,23.30
2017-11-14T01:36:42.005Z,22.42
2017-11-14T01:39:09.489Z,22.35
2017-11-14T01:41:36.957Z,23.42
2017-11-14T01:44:05.204Z,24.35
2017-11-14T01:46:32.880Z,24.12
2017-11-14T01:49:00.360Z,24.50
2017-11-14T01:51:28.589Z,23.75
2017-11-14T01:53:56.069Z,24.70
2017-11-14T01:56:23.532Z,25.58
2017-11-14T01:58:51.031Z,25.37
2017-11-14T02:01:18.497Z,25.05
2017-11-14T02:03:45.968Z,26.02
2017-11-14T02:06:13.450Z,25.20
2017-11-14T02:08:40.925Z,26.37
2017-11-14T02:11:08.389Z,25.08
2017-11-14T02:13:36.631Z,25.58
2017-11-14T02:16:04.100Z,25.05
2017-11-14T02:18:31.580Z,25.10
2017-11-14T02:20:59.077Z,24.95
2017-11-14T02:23:26.540Z,25.15
2017-11-14T02:25:59.632Z,25.92
2017-11-14T02:28:27.102Z,27.75
2017-11-14T02:30:54.573Z,26.30
2017-11-14T02:33:22.042Z,27.30
2017-11-14T02:35:49.526Z,26.55
2017-11-14T02:38:17.012Z,28.73
2017-11-14T02:40:44.496Z,27.40
2017-11-14T02:43:11.961Z,30.42
2017-11-14T02:45:39.438Z,25.05
2017-11-14T02:48:06.913Z,25.33
2017-11-14T02:50:35.147Z,26.35
2017-11-14T02:53:02.626Z,26.25
2017-11-14T02:55:30.104Z,24.75
2017-11-14T02:57:58.333Z,24.35
2017-11-14T03:00:25.807Z,25.80
2017-11-14T03:02:53.265Z,24.87
2017-11-14T03:05:20.746Z,26.05
2017-11-14T03:07:48.972Z,27.73
2017-11-14T03:10:16.465Z,25.23
2017-11-14T03:12:43.939Z,26.62
2017-11-14T03:15:12.186Z,27.87
2017-11-14T03:17:39.660Z,27.42
2017-11-14T03:20:07.140Z,27.60
2017-11-14T03:22:34.612Z,26.98
2017-11-14T03:25:02.121Z,27.58
2017-11-14T03:27:29.612Z,26.33
2017-11-14T03:29:57.088Z,25.25
2017-11-14T03:32:24.559Z,24.05
2017-11-14T03:34:52.067Z,24.30
2017-11-14T03:37:20.314Z,23.95
2017-11-14T03:39:47.777Z,23.30
2017-11-14T03:42:15.432Z,24.55
2017-11-14T03:44:42.897Z,22.62
2017-11-14T03:47:10.369Z,22.33
2017-11-14T03:49:37.839Z,22.50
2017-11-14T03:52:06.081Z,20.65
2017-11-14T03:54:33.541Z,21.33
2017-11-14T03:57:01.026Z,21.37
2017-11-14T03:59:29.257Z,21.30
2017-11-14T04:01:56.738Z,23.33
2017-11-14T04:04:24.199Z,23.85
2017-11-14T04:06:51.721Z,21.98
2017-11-14T04:09:19.185Z,21.40
2017-11-14T04:11:46.660Z,21.50
2017-11-14T04:14:14.142Z,19.23
2017-11-14T04:16:41.622Z,20.90
2017-11-14T04:19:09.870Z,21.12
2017-11-14T04:21:37.433Z,20.85
2017-11-14T04:24:04.936Z,20.30
2017-11-14T04:26:32.941Z,22.35
2017-11-14T04:29:00.437Z,21.75
2017-11-14T04:31:28.672Z,21.87
2017-11-14T04:33:56.151Z,21.30
2017-11-14T04:36:23.618Z,20.80
2017-11-14T04:38:51.854Z,21.75
2017-11-14T04:41:19.336Z,22.60
2017-11-14T04:43:46.802Z,21.45
2017-11-14T04:46:14.270Z,25.30
2017-11-14T04:48:42.551Z,21.55
2017-11-14T04:51:10.782Z,22.73
2017-11-14T04:53:38.267Z,21.48
2017-11-14T04:56:05.747Z,19.62
2017-11-14T04:58:33.985Z,22.02
2017-11-14T05:01:01.469Z,23.17
2017-11-14T05:03:29.709Z,22.87
2017-11-14T05:05:57.206Z,22.20
2017-11-14T05:08:24.694Z,20.75
2017-11-14T05:10:52.166Z,21.25
2017-11-14T05:13:19.633Z,19.92
2017-11-14T05:15:47.100Z,21.15
2017-11-14T05:18:14.584Z,22.25
2017-11-14T05:20:42.061Z,20.08
2017-11-14T05:23:10.305Z,19.85
2017-11-14T05:25:37.802Z,21.20
2017-11-14T05:28:06.061Z,20.58
2017-11-14T05:30:34.322Z,19.73
2017-11-14T05:33:01.793Z,20.17
2017-11-14T05:35:30.033Z,21.05
2017-11-14T05:37:57.518Z,23.12
2017-11-14T05:40:25.074Z,21.45
2017-11-14T05:42:52.535Z,20.50
2017-11-14T05:45:20.014Z,19.50
2017-11-14T05:47:47.480Z,19.77
2017-11-14T05:50:14.958Z,21.00
2017-11-14T05:52:42.429Z,20.12
2017-11-14T05:55:09.909Z,18.90
2017-11-14T05:57:37.389Z,22.00
2017-11-14T06:00:05.632Z,20.35
2017-11-14T06:02:33.097Z,21.37
2017-11-14T06:05:00.601Z,22.70
2017-11-14T06:07:28.845Z,23.08
2017-11-14T06:09:57.829Z,19.65
2017-11-14T06:12:25.305Z,21.80
2017-11-14T06:14:53.544Z,22.73
2017-11-14T06:17:21.024Z,23.02
2017-11-14T06:19:48.522Z,20.80
2017-11-14T06:22:15.981Z,22.20
2017-11-14T06:24:43.467Z,21.50
2017-11-14T06:27:10.969Z,19.60
2017-11-14T06:29:39.204Z,20.73
2017-11-14T06:32:06.881Z,20.60
2017-11-14T06:34:34.375Z,20.50
2017-11-14T06:37:02.684Z,21.25
2017-11-14T06:39:30.165Z,20.23
2017-11-14T06:41:57.657Z,19.62
2017-11-14T06:44:25.137Z,18.67
2017-11-14T06:46:52.611Z,15.73
2017-11-14T06:49:20.072Z,17.25
2017-11-14T06:51:47.596Z,16.55
2017-11-14T06:54:15.824Z,15.65
2017-11-14T06:56:43.306Z,15.15
2017-11-14T06:59:10.860Z,15.07
2017-11-14T07:01:38.337Z,13.75
2017-11-14T07:04:05.808Z,14.60
2017-11-14T07:06:34.073Z,15.40
2017-11-14T07:09:02.314Z,15.00
2017-11-14T07:11:29.786Z,14.35
2017-11-14T07:13:57.270Z,13.75
2017-11-14T07:16:25.526Z,14.82
2017-11-14T07:18:53.010Z,13.10
2017-11-14T07:21:21.250Z,13.38
2017-11-14T07:23:48.724Z,12.93
2017-11-14T07:26:16.183Z,12.10
2017-11-14T07:28:43.664Z,13.32
2017-11-14T07:31:11.902Z,12.98
2017-11-14T07:33:39.381Z,12.88
2017-11-14T07:36:07.639Z,13.93
2017-11-14T07:38:35.150Z,11.93
2017-11-14T07:41:02.613Z,12.93
2017-11-14T07:43:30.098Z,11.98
2017-11-14T07:45:57.573Z,13.77
2017-11-14T07:48:25.133Z,12.63
2017-11-14T07:50:52.605Z,13.65
2017-11-14T07:53:20.896Z,12.75
2017-11-14T07:55:49.139Z,13.30
2017-11-14T07:58:16.635Z,14.38
2017-11-14T08:00:44.098Z,13.65
2017-11-14T08:03:11.574Z,13.80
2017-11-14T08:05:39.042Z,14.20
2017-11-14T08:08:06.513Z,13.38
2017-11-14T08:10:33.990Z,13.20
2017-11-14T08:13:01.458Z,14.00
2017-11-14T08:15:28.933Z,13.73
2017-11-14T08:17:57.177Z,13.57
2017-11-14T08:20:24.663Z,13.95
2017-11-14T08:22:52.148Z,13.43
2017-11-14T08:25:19.632Z,13.95
2017-11-14T08:27:47.151Z,15.55
2017-11-14T08:30:14.644Z,13.82
2017-11-14T08:32:42.117Z,13.73
2017-11-14T08:35:09.639Z,12.75
2017-11-14T08:37:37.167Z,14.52
2017-11-14T08:40:05.428Z,14.75
2017-11-14T08:42:32.910Z,14.68
2017-11-14T08:45:01.141Z,14.65
2017-11-14T08:47:28.634Z,14.73
2017-11-14T08:49:56.892Z,13.20
2017-11-14T08:52:24.399Z,13.05
2017-11-14T08:54:52.060Z,12.68
2017-11-14T08:57:22.977Z,14.35
2017-11-14T08:59:50.470Z,14.15
2017-11-14T09:02:17.933Z,13.50
2017-11-14T09:04:45.431Z,12.90
2017-11-14T09:07:12.914Z,13.27
2017-11-14T09:09:40.376Z,13.00
2017-11-14T09:12:07.857Z,14.70
2017-11-14T09:14:35.322Z,13.62
2017-11-14T09:17:02.798Z,14.20
2017-11-14T09:19:31.029Z,13.57
2017-11-14T09:21:58.509Z,12.77
2017-11-14T09:24:27.482Z,11.85
2017-11-14T09:26:54.956Z,11.32
2017-11-14T09:29:22.421Z,12.13
2017-11-14T09:31:49.893Z,11.48
2017-11-14T09:34:18.130Z,10.27
2017-11-14T09:36:45.614Z,10.00
2017-11-14T09:39:13.069Z,9.65
2017-11-14T09:41:40.552Z,10.38
2017-11-14T09:44:08.026Z,10.98
2017-11-14T09:46:35.515Z,9.05
2017-11-14T09:49:03.001Z,7.85
2017-11-14T09:51:30.466Z,7.07
2017-11-14T09:53:58.707Z,7.60
2017-11-14T09:56:26.186Z,7.87
2017-11-14T09:58:53.655Z,7.43
2017-11-14T10:01:21.898Z,7.80
2017-11-14T10:03:49.378Z,7.22
2017-11-14T10:06:16.845Z,7.70
2017-11-14T10:08:45.085Z,8.75
2017-11-14T10:11:12.555Z,6.70
2017-11-14T10:13:40.041Z,8.25
2017-11-14T10:16:08.260Z,6.37
2017-11-14T10:18:35.740Z,6.87
2017-11-14T10:21:03.205Z,6.30
2017-11-14T10:23:30.685Z,7.07
2017-11-14T10:25:58.912Z,5.70
2017-11-14T10:28:26.415Z,5.47
2017-11-14T10:30:53.870Z,6.68
2017-11-14T10:33:21.363Z,5.87
2017-11-14T10:35:48.817Z,6.18
2017-11-14T10:38:16.285Z,7.75
2017-11-14T10:40:43.745Z,9.18
2017-11-14T10:43:11.221Z,8.45
2017-11-14T10:45:38.694Z,9.30
2017-11-14T10:48:06.177Z,11.80
2017-11-14T10:50:34.545Z,14.68
2017-11-14T10:53:02.125Z,15.15
2017-11-14T10:55:30.353Z,14.35
2017-11-14T10:57:57.862Z,15.40
2017-11-14T11:00:31.690Z,14.65
2017-11-14T11:02:59.154Z,14.00
2017-11-14T11:05:26.633Z,14.85
2017-11-14T11:07:54.103Z,14.45
2017-11-14T11:10:21.567Z,14.70
2017-11-14T11:12:49.034Z,14.82
2017-11-14T11:15:16.509Z,14.43
2017-11-14T11:17:44.745Z,15.23
2017-11-14T11:20:12.217Z,14.13
2017-11-14T11:22:39.691Z,12.30
2017-11-14T11:25:07.977Z,15.57
2017-11-14T11:27:36.210Z,16.12
2017-11-14T11:30:03.692Z,16.80
2017-11-14T11:32:31.162Z,18.50
2017-11-14T11:34:59.402Z,18.52
2017-11-14T11:37:26.870Z,18.30
2017-11-14T11:39:54.347Z,20.33
2017-11-14T11:42:22.617Z,20.08
2017-11-14T11:44:50.106Z,19.95
2017-11-14T11:47:18.462Z,19.05
2017-11-14T11:49:46.729Z,17.65
2017-11-14T11:52:14.371Z,17.42
2017-11-14T11:54:41.874Z,18.45
2017-11-14T11:57:10.111Z,18.20
2017-11-14T11:59:37.583Z,16.50
2017-11-14T12:02:05.885Z,17.85
2017-11-14T12:04:33.349Z,15.57
2017-11-14T12:07:00.845Z,16.80
2017-11-14T12:09:28.325Z,17.15
2017-11-14T12:11:55.837Z,18.37
2017-11-14T12:14:23.321Z,15.57
2017-11-14T12:16:50.832Z,17.98
2017-11-14T12:19:19.108Z,15.48
2017-11-14T12:21:47.401Z,18.70
2017-11-14T12:24:14.922Z,16.00
2017-11-14T12:26:42.414Z,18.52
2017-11-14T12:29:09.938Z,17.83
2017-11-14T12:31:37.419Z,16.15
2017-11-14T12:34:05.657Z,15.07
2017-11-14T12:36:33.898Z,15.23
2017-11-14T12:39:01.408Z,15.65
2017-11-14T12:41:28.891Z,16.73
2017-11-14T12:43:56.344Z,14.73
2017-11-14T12:46:23.821Z,15.55
2017-11-14T12:48:51.291Z,16.20
2017-11-14T12:51:18.770Z,15.23
2017-11-14T12:53:46.237Z,14.10
2017-11-14T12:56:13.713Z,13.25
2017-11-14T12:58:41.979Z,11.38
2017-11-14T13:01:09.449Z,13.82
2017-11-14T13:03:37.689Z,14.77
2017-11-14T13:06:05.156Z,15.48
2017-11-14T13:08:32.628Z,14.05
2017-11-14T13:11:00.104Z,13.52
2017-11-14T13:13:28.340Z,13.75
2017-11-14T13:15:55.820Z,14.80
2017-11-14T13:18:23.331Z,14.38
2017-11-14T13:20:51.917Z,13.23
2017-11-14T13:23:19.474Z,14.15
2017-11-14T13:25:46.986Z,13.32
2017-11-14T13:28:15.233Z,13.95
2017-11-14T13:30:42.729Z,12.93
2017-11-14T13:33:10.999Z,13.05
2017-11-14T13:35:38.458Z,14.48
2017-11-14T13:38:06.736Z,13.50
2017-11-14T13:40:34.965Z,15.63
2017-11-14T13:43:02.457Z,14.07
2017-11-14T13:45:29.946Z,14.45
2017-11-14T13:47:57.498Z,12.27
2017-11-14T13:50:25.849Z,13.15
2017-11-14T13:52:53.333Z,13.77
2017-11-14T13:55:21.599Z,11.95
2017-11-14T13:57:49.919Z,13.13
2017-11-14T14:00:17.494Z,13.52
2017-11-14T14:02:44.978Z,12.10
2017-11-14T14:05:12.490Z,13.60
2017-11-14T14:07:39.979Z,12.80
2017-11-14T14:10:07.480Z,13.93
2017-11-14T14:12:35.717Z,12.18
2017-11-14T14:15:03.220Z,13.00
2017-11-14T14:17:30.811Z,14.38
2017-11-14T14:19:58.321Z,14.15
2017-11-14T14:22:26.551Z,15.65
2017-11-14T14:24:54.122Z,16.30
2017-11-14T14:27:21.631Z,14.10
2017-11-14T14:29:49.865Z,12.55
2017-11-14T14:32:17.364Z,13.98
2017-11-14T14:34:44.849Z,15.15
2017-11-14T14:37:12.335Z,14.95
2017-11-14T14:39:39.802Z,13.50
2017-11-14T14:42:07.265Z,12.75
2017-11-14T14:44:34.737Z,14.20
2017-11-14T14:47:03.000Z,15.98
2017-11-14T14:49:30.487Z,17.25
2017-11-14T14:51:57.978Z,17.80
2017-11-14T14:54:25.463Z,17.42
2017-11-14T14:56:52.946Z,16.52
2017-11-14T14:59:21.176Z,18.37
2017-11-14T15:01:48.636Z,16.87
2017-11-14T15:04:16.107Z,15.60
2017-11-14T15:06:43.581Z,16.65
2017-11-14T15:09:11.044Z,17.40
2017-11-14T15:11:39.282Z,17.95
2017-11-14T15:14:06.775Z,17.75
2017-11-14T15:16:34.250Z,16.05
2017-11-14T15:19:02.473Z,18.60
2017-11-14T15:21:29.944Z,19.60
2017-11-14T15:23:57.400Z,19.30
2017-11-14T15:26:24.864Z,19.23
2017-11-14T15:28:52.331Z,17.85
2017-11-14T15:31:19.848Z,16.17
2017-11-14T15:33:47.338Z,17.60
2017-11-14T15:36:15.625Z,16.15
2017-11-14T15:38:43.197Z,19.92
2017-11-14T15:41:11.438Z,20.05
2017-11-14T15:43:38.928Z,19.58
2017-11-14T15:46:07.293Z,20.35
2017-11-14T15:48:34.772Z,20.33
2017-11-14T15:51:03.015Z,21.23
2017-11-14T15:53:30.485Z,21.58
2017-11-14T15:55:57.977Z,21.08
2017-11-14T15:58:25.501Z,20.17
2017-11-14T16:00:53.750Z,19.67
2017-11-14T16:03:21.229Z,22.60
2017-11-14T16:05:48.701Z,21.70
2017-11-14T16:08:16.240Z,22.73
2017-11-14T16:10:43.707Z,24.20
2017-11-14T16:13:11.172Z,20.00
2017-11-14T16:15:38.642Z,20.67
2017-11-14T16:18:06.995Z,22.77
2017-11-14T16:20:34.461Z,21.33
2017-11-14T16:23:01.937Z,23.65
2017-11-14T16:25:30.164Z,21.33
2017-11-14T16:27:57.712Z,22.15
2017-11-14T16:30:25.241Z,21.37
2017-11-14T16:32:54.501Z,22.98
2017-11-14T16:35:21.969Z,22.45
2017-11-14T16:37:49.445Z,20.35
2017-11-14T16:40:17.676Z,22.02
2017-11-14T16:42:45.149Z,21.85
2017-11-14T16:45:12.621Z,23.52
2017-11-14T16:47:40.115Z,20.88
2017-11-14T16:50:07.597Z,23.05
2017-11-14T16:52:35.105Z,23.45
2017-11-14T16:55:03.372Z,22.75
2017-11-14T16:57:30.841Z,20.02
2017-11-14T16:59:59.097Z,22.83
2017-11-14T17:02:26.576Z,19.85
2017-11-14T17:04:54.823Z,21.17
2017-11-14T17:07:22.301Z,22.30
2017-11-14T17:09:50.106Z,22.77
2017-11-14T17:12:17.974Z,20.40
2017-11-14T17:14:45.841Z,19.58
2017-11-14T17:17:13.708Z,19.67
2017-11-14T17:19:42.393Z,19.30
2017-11-14T17:22:10.465Z,20.02
2017-11-14T17:24:39.254Z,27.25
2017-11-14T17:27:07.939Z,18.70
2017-11-14T17:29:38.188Z,19.58
2017-11-14T17:32:06.139Z,20.50
2017-11-14T17:34:33.932Z,18.15
2017-11-14T17:37:01.719Z,19.77
2017-11-14T17:39:29.199Z,22.80
2017-11-14T17:41:57.492Z,19.52
2017-11-14T17:44:25.342Z,16.65
2017-11-14T17:46:53.301Z,21.12
2017-11-14T17:49:21.099Z,22.25
2017-11-14T17:51:48.621Z,21.98
2017-11-14T17:54:16.863Z,23.15
2017-11-14T17:56:44.720Z,24.67
2017-11-14T17:59:12.670Z,25.73
2017-11-14T18:01:41.375Z,29.23
2017-11-14T18:04:09.219Z,21.48
2017-11-14T18:06:37.711Z,26.02
2017-11-14T18:09:06.489Z,28.10
2017-11-14T18:11:34.766Z,25.58
2017-11-14T18:14:04.065Z,24.83
2017-11-14T18:16:33.367Z,27.35
2017-11-14T18:19:00.884Z,28.98
2017-11-14T18:21:29.406Z,25.42
2017-11-14T18:23:56.942Z,25.17
2017-11-14T18:26:25.228Z,27.48
2017-11-14T18:28:52.699Z,28.10
2017-11-14T18:31:20.466Z,27.42
2017-11-14T18:33:48.198Z,28.58
2017-11-14T18:36:18.063Z,27.15
2017-11-14T18:38:45.794Z,29.45
2017-11-14T18:41:13.265Z,29.23
2017-11-14T18:43:40.782Z,28.58
2017-11-14T18:46:08.344Z,28.77
2017-11-14T18:48:36.639Z,26.60
2017-11-14T18:51:04.111Z,37.15
2017-11-14T18:53:31.641Z,29.15
2017-11-14T18:55:59.975Z,28.30
2017-11-14T18:58:27.469Z,27.75
2017-11-14T19:00:54.945Z,25.45
2017-11-14T19:03:23.187Z,25.15
2017-11-14T19:05:50.657Z,23.65
2017-11-14T19:08:18.504Z,25.08
2017-11-14T19:11:04.912Z,26.00
2017-11-14T19:13:32.416Z,25.55
2017-11-14T19:16:01.923Z,25.48
2017-11-14T19:18:30.300Z,26.02
2017-11-14T19:20:57.793Z,27.37
2017-11-14T19:23:25.260Z,26.73
2017-11-14T19:25:52.730Z,25.98
2017-11-14T19:28:20.207Z,27.95
2017-11-14T19:30:48.471Z,27.52
2017-11-14T19:33:15.955Z,25.35
2017-11-14T19:35:44.563Z,25.80
2017-11-14T19:38:12.454Z,24.35
2017-11-14T19:40:40.394Z,24.65
2017-11-14T19:43:08.263Z,25.95
2017-11-14T19:45:35.773Z,23.60
2017-11-14T19:48:05.362Z,24.35
2017-11-14T19:50:33.309Z,22.85
2017-11-14T19:53:00.829Z,26.48
2017-11-14T19:55:31.209Z,25.75
2017-11-14T20:00:40.691Z,27.45
2017-11-14T20:03:08.491Z,25.65
2017-11-14T20:05:36.120Z,25.88
2017-11-14T20:08:05.221Z,27.55
2017-11-14T20:10:38.158Z,25.80
2017-11-14T20:13:06.984Z,26.17
2017-11-14T20:15:34.724Z,25.05
2017-11-14T20:18:03.024Z,25.42
2017-11-14T20:20:35.504Z,25.90
2017-11-14T20:23:07.941Z,24.48
2017-11-14T20:25:35.438Z,25.80
2017-11-14T20:28:02.896Z,25.37
2017-11-14T20:30:31.775Z,23.65
2017-11-14T20:33:04.058Z,23.75
2017-11-14T20:35:33.121Z,27.55
2017-11-14T20:38:01.282Z,23.33
2017-11-14T20:40:29.032Z,26.65
2017-11-14T20:42:59.154Z,24.58
2017-11-14T20:45:30.193Z,23.48
2017-11-14T20:47:57.661Z,25.45
2017-11-14T20:50:25.139Z,26.17
2017-11-14T20:52:52.628Z,25.77
2017-11-14T20:55:20.130Z,25.20
2017-11-14T20:57:47.662Z,23.98
2017-11-14T21:00:15.909Z,23.52
2017-11-14T21:02:43.745Z,23.35
2017-11-14T21:05:11.348Z,22.60
2017-11-14T21:07:50.126Z,24.25
2017-11-14T21:10:19.088Z,23.17
2017-11-14T21:12:46.547Z,22.75
2017-11-14T21:15:14.003Z,22.52
2017-11-14T21:17:41.787Z,22.65
2017-11-14T21:20:09.271Z,23.33
2017-11-14T21:22:36.752Z,22.80
2017-11-14T21:25:04.368Z,23.08
2017-11-14T21:27:31.837Z,24.58
2017-11-14T21:29:59.704Z,21.92
2017-11-14T21:32:27.984Z,21.77
2017-11-14T21:35:02.556Z,22.85
2017-11-14T21:37:30.913Z,22.50
2017-11-14T21:39:59.913Z,23.45
2017-11-14T21:42:29.783Z,22.98
2017-11-14T21:44:57.266Z,23.50
2017-11-14T21:47:24.732Z,24.00
2017-11-14T21:50:02.125Z,23.33
2017-11-14T21:52:29.735Z,22.33
2017-11-14T21:54:57.220Z,22.65
2017-11-14T21:57:37.658Z,23.33
2017-11-14T22:00:05.155Z,22.83
2017-11-14T22:02:32.906Z,23.25
2017-11-14T22:05:01.162Z,24.73
2017-11-14T22:07:29.966Z,25.00
2017-11-14T22:10:15.119Z,25.65
2017-11-14T22:12:42.657Z,24.58
2017-11-14T22:18:05.057Z,23.65
2017-11-14T22:20:36.800Z,31.62
2017-11-14T22:23:04.821Z,24.17
2017-11-14T22:25:34.139Z,23.40
2017-11-14T22:28:04.836Z,23.42
2017-11-14T22:30:32.348Z,23.10
2017-11-14T22:33:00.185Z,25.17
2017-11-14T22:35:30.529Z,26.37
2017-11-14T22:41:02.336Z,22.70
2017-11-14T22:43:31.108Z,24.08
2017-11-14T22:46:00.692Z,25.37
2017-11-14T22:48:44.485Z,25.52
2017-11-14T22:51:12.028Z,25.62
2017-11-14T22:53:39.729Z,25.05
2017-11-14T22:56:07.944Z,24.45
2017-11-14T22:58:43.073Z,22.98
2017-11-14T23:01:11.495Z,23.85
2017-11-14T23:03:38.973Z,25.60
2017-11-14T23:06:06.441Z,24.95
2017-11-14T23:08:33.924Z,23.48
2017-11-14T23:11:02.177Z,25.58
2017-11-14T23:13:29.662Z,24.85
2017-11-14T23:15:57.938Z,25.48
2017-11-14T23:18:26.237Z,23.65
2017-11-14T23:20:53.737Z,25.45
2017-11-14T23:23:21.257Z,25.73
2017-11-14T23:25:48.730Z,24.45
2017-11-14T23:28:16.233Z,26.37
2017-11-14T23:30:44.482Z,23.90
2017-11-14T23:33:12.396Z,22.92
2017-11-14T23:35:39.867Z,23.05
2017-11-14T23:38:07.331Z,22.33
2017-11-14T23:40:34.843Z,24.23
2017-11-14T23:43:02.306Z,23.10
2017-11-14T23:45:30.549Z,23.62
2017-11-14T23:47:58.022Z,23.00
2017-11-14T23:50:25.503Z,24.00
2017-11-14T23:52:53.745Z,23.23
2017-11-14T23:55:21.215Z,23.48
2017-11-14T23:57:49.271Z,22.90
